createdAt,value
2018-05-16T00:00:29.596Z,6.23
2018-05-16T00:02:57.640Z,7.97
2018-05-16T00:05:25.680Z,6.60
2018-05-16T00:07:53.736Z,12.50
2018-05-16T00:10:21.778Z,9.87
2018-05-16T00:12:49.832Z,10.07
2018-05-16T00:15:17.879Z,10.43
2018-05-16T00:17:45.937Z,7.57
2018-05-16T00:20:13.999Z,11.70
2018-05-16T00:22:42.807Z,6.70
2018-05-16T00:25:10.875Z,9.33
2018-05-16T00:27:38.918Z,8.37
2018-05-16T00:30:06.955Z,6.97
2018-05-16T00:32:35.766Z,8.33
2018-05-16T00:35:03.815Z,9.80
2018-05-16T00:37:31.898Z,18.33
2018-05-16T00:39:59.919Z,11.10
2018-05-16T00:42:27.962Z,8.33
2018-05-16T00:44:55.994Z,7.57
2018-05-16T00:47:24.052Z,7.60
2018-05-16T00:49:52.859Z,10.10
2018-05-16T00:52:21.666Z,8.70
2018-05-16T00:54:50.477Z,7.07
2018-05-16T00:57:18.526Z,8.27
2018-05-16T00:59:46.574Z,8.90
2018-05-16T01:02:14.618Z,8.80
2018-05-16T01:04:43.422Z,13.17
2018-05-16T01:07:11.475Z,7.50
2018-05-16T01:09:39.514Z,8.93
2018-05-16T01:12:07.577Z,7.07
2018-05-16T01:14:36.371Z,8.03
2018-05-16T01:17:05.176Z,6.87
2018-05-16T01:19:33.996Z,10.57
2018-05-16T01:22:02.031Z,9.23
2018-05-16T01:24:31.597Z,11.53
2018-05-16T01:26:59.631Z,13.77
2018-05-16T01:29:27.675Z,9.60
2018-05-16T01:31:55.722Z,12.87
2018-05-16T01:34:23.762Z,8.57
2018-05-16T01:36:51.796Z,13.80
2018-05-16T01:39:20.608Z,10.90
2018-05-16T01:41:49.527Z,17.50
2018-05-16T01:44:17.571Z,7.27
2018-05-16T01:46:45.602Z,9.73
2018-05-16T01:49:20.413Z,8.67
2018-05-16T01:51:48.387Z,8.30
2018-05-16T01:54:17.223Z,11.80
2018-05-16T01:56:45.266Z,9.73
2018-05-16T01:59:13.313Z,15.40
2018-05-16T02:01:42.284Z,13.93
2018-05-16T02:04:10.364Z,14.53
2018-05-16T02:06:39.170Z,11.47
2018-05-16T02:09:07.226Z,10.97
2018-05-16T02:11:35.270Z,11.63
2018-05-16T02:14:03.310Z,9.03
2018-05-16T02:16:32.125Z,10.47
2018-05-16T02:19:00.940Z,10.20
2018-05-16T02:21:29.048Z,10.53
2018-05-16T02:23:58.542Z,8.47
2018-05-16T02:26:26.626Z,8.03
2018-05-16T02:28:54.683Z,14.07
2018-05-16T02:31:23.495Z,25.20
2018-05-16T02:33:52.315Z,14.50
2018-05-16T02:36:20.376Z,14.67
2018-05-16T02:38:49.178Z,16.27
2018-05-16T02:41:17.997Z,17.03
2018-05-16T02:43:46.034Z,9.27
2018-05-16T02:46:14.091Z,15.93
2018-05-16T02:48:42.141Z,12.03
2018-05-16T02:51:10.962Z,16.50
2018-05-16T02:53:39.003Z,13.27
2018-05-16T02:56:07.055Z,13.87
2018-05-16T02:58:35.099Z,12.93
2018-05-16T03:01:03.906Z,9.97
2018-05-16T03:03:32.199Z,13.80
2018-05-16T03:06:00.243Z,19.03
2018-05-16T03:08:28.291Z,13.33
2018-05-16T03:10:56.338Z,16.30
2018-05-16T03:13:25.144Z,12.47
2018-05-16T03:15:53.958Z,13.20
2018-05-16T03:18:22.134Z,12.67
2018-05-16T03:20:50.172Z,15.93
2018-05-16T03:23:18.342Z,15.50
2018-05-16T03:25:46.399Z,16.33
2018-05-16T03:28:14.439Z,17.97
2018-05-16T03:30:42.490Z,17.90
2018-05-16T03:33:10.534Z,18.63
2018-05-16T03:35:39.350Z,23.30
2018-05-16T03:38:07.399Z,23.60
2018-05-16T03:40:35.451Z,19.37
2018-05-16T03:43:03.499Z,22.43
2018-05-16T03:45:31.553Z,19.07
2018-05-16T03:47:59.598Z,18.07
2018-05-16T03:50:27.653Z,19.87
2018-05-16T03:52:56.455Z,12.43
2018-05-16T03:55:24.511Z,19.90
2018-05-16T04:01:34.091Z,12.23
2018-05-16T04:04:16.642Z,10.17
2018-05-16T04:06:45.460Z,14.60
2018-05-16T04:09:14.275Z,12.00
2018-05-16T04:11:42.324Z,12.73
2018-05-16T04:14:10.370Z,19.23
2018-05-16T04:16:38.427Z,11.20
2018-05-16T04:19:06.466Z,12.87
2018-05-16T04:21:34.663Z,12.83
2018-05-16T04:24:02.697Z,14.43
2018-05-16T04:26:30.756Z,15.57
2018-05-16T04:28:59.566Z,12.93
2018-05-16T04:31:27.617Z,11.60
2018-05-16T04:33:55.665Z,11.23
2018-05-16T04:36:23.715Z,9.47
2018-05-16T04:38:51.759Z,8.73
2018-05-16T04:41:19.854Z,12.77
2018-05-16T04:43:47.898Z,8.23
2018-05-16T04:46:15.943Z,10.30
2018-05-16T04:48:44.754Z,10.47
2018-05-16T04:51:12.802Z,9.17
2018-05-16T04:53:40.939Z,11.27
2018-05-16T04:56:08.994Z,12.40
2018-05-16T04:58:37.798Z,11.03
2018-05-16T05:01:06.628Z,8.17
2018-05-16T05:03:34.718Z,24.53
2018-05-16T05:06:02.768Z,22.83
2018-05-16T05:08:31.577Z,9.50
2018-05-16T05:11:00.491Z,9.00
2018-05-16T05:13:28.534Z,7.80
2018-05-16T05:15:56.603Z,15.20
2018-05-16T05:18:24.700Z,8.43
2018-05-16T05:20:52.706Z,7.20
2018-05-16T05:23:21.333Z,11.33
2018-05-16T05:25:49.366Z,7.27
2018-05-16T05:28:17.406Z,9.07
2018-05-16T05:30:45.446Z,7.77
2018-05-16T05:33:13.497Z,9.17
2018-05-16T05:35:41.543Z,11.20
2018-05-16T05:38:10.357Z,8.67
2018-05-16T05:40:38.385Z,8.13
2018-05-16T05:43:06.434Z,7.97
2018-05-16T05:45:34.545Z,10.50
2018-05-16T05:48:02.570Z,9.20
2018-05-16T05:50:31.375Z,14.40
2018-05-16T05:53:00.194Z,14.17
2018-05-16T05:55:28.232Z,14.57
2018-05-16T05:57:56.274Z,18.23
2018-05-16T06:00:24.321Z,12.10
2018-05-16T06:02:53.130Z,10.90
2018-05-16T06:05:21.953Z,11.10
2018-05-16T06:07:50.758Z,11.90
2018-05-16T06:10:18.808Z,9.77
2018-05-16T06:12:46.885Z,9.90
2018-05-16T06:15:14.897Z,12.43
2018-05-16T06:17:42.947Z,11.20
2018-05-16T06:20:10.985Z,9.90
2018-05-16T06:22:39.034Z,12.50
2018-05-16T06:25:07.843Z,11.77
2018-05-16T06:27:36.802Z,12.63
2018-05-16T06:30:04.852Z,10.57
2018-05-16T06:32:32.894Z,10.30
2018-05-16T06:35:00.939Z,10.73
2018-05-16T06:37:28.998Z,10.43
2018-05-16T06:39:57.046Z,10.83
2018-05-16T06:42:25.095Z,11.23
2018-05-16T06:44:53.138Z,10.97
2018-05-16T06:47:21.967Z,10.43
2018-05-16T06:49:50.035Z,15.23
2018-05-16T06:52:18.087Z,11.60
2018-05-16T06:54:46.135Z,14.83
2018-05-16T06:57:14.176Z,11.33
2018-05-16T06:59:42.995Z,12.27
2018-05-16T07:02:11.041Z,11.53
2018-05-16T07:04:39.099Z,11.10
2018-05-16T07:07:07.143Z,10.13
2018-05-16T07:09:35.195Z,8.77
2018-05-16T07:12:03.234Z,8.33
2018-05-16T07:14:31.290Z,7.47
2018-05-16T07:17:00.091Z,9.10
2018-05-16T07:19:28.164Z,7.37
2018-05-16T07:21:57.403Z,6.20
2018-05-16T07:24:25.449Z,6.17
2018-05-16T07:26:53.492Z,5.10
2018-05-16T07:29:21.543Z,5.80
2018-05-16T07:31:49.593Z,5.10
2018-05-16T07:34:17.642Z,5.83
2018-05-16T07:36:45.674Z,5.67
2018-05-16T07:39:14.489Z,5.17
2018-05-16T07:41:43.290Z,5.97
2018-05-16T07:44:12.160Z,4.67
2018-05-16T07:46:40.158Z,5.93
2018-05-16T07:49:08.207Z,8.43
2018-05-16T07:51:36.251Z,4.40
2018-05-16T07:54:04.298Z,4.47
2018-05-16T07:56:32.348Z,4.57
2018-05-16T07:59:00.390Z,5.20
2018-05-16T08:01:29.215Z,4.80
2018-05-16T08:03:57.263Z,5.70
2018-05-16T08:06:25.311Z,6.50
2018-05-16T08:08:53.350Z,4.73
2018-05-16T08:11:22.167Z,7.53
2018-05-16T08:13:50.213Z,5.03
2018-05-16T08:16:18.257Z,4.07
2018-05-16T08:18:46.305Z,4.47
2018-05-16T08:21:15.102Z,6.53
2018-05-16T08:23:43.922Z,4.53
2018-05-16T08:26:11.962Z,3.60
2018-05-16T08:28:40.008Z,4.80
2018-05-16T08:31:08.134Z,3.90
2018-05-16T08:33:36.860Z,4.80
2018-05-16T08:36:05.669Z,3.50
2018-05-16T08:38:33.716Z,5.63
2018-05-16T08:41:01.762Z,4.00
2018-05-16T08:43:29.798Z,3.67
2018-05-16T08:45:57.875Z,3.47
2018-05-16T08:48:26.677Z,3.83
2018-05-16T08:50:54.728Z,9.10
2018-05-16T08:53:22.766Z,4.17
2018-05-16T08:55:51.575Z,6.20
2018-05-16T08:58:20.378Z,3.90
2018-05-16T09:00:49.191Z,6.13
2018-05-16T09:03:17.231Z,4.17
2018-05-16T09:05:45.279Z,3.73
2018-05-16T09:08:13.328Z,4.13
2018-05-16T09:10:42.147Z,9.17
2018-05-16T09:13:10.190Z,4.40
2018-05-16T09:15:38.299Z,5.33
2018-05-16T09:18:07.094Z,4.73
2018-05-16T09:20:35.910Z,6.90
2018-05-16T09:23:04.720Z,7.57
2018-05-16T09:25:32.766Z,4.87
2018-05-16T09:28:00.811Z,8.27
2018-05-16T09:30:28.854Z,7.80
2018-05-16T09:32:57.663Z,5.50
2018-05-16T09:35:26.479Z,10.47
2018-05-16T09:37:54.582Z,5.97
2018-05-16T09:40:22.679Z,5.83
2018-05-16T09:42:50.654Z,6.53
2018-05-16T09:45:18.724Z,6.80
2018-05-16T09:47:46.789Z,8.37
2018-05-16T09:50:15.598Z,7.83
2018-05-16T09:52:43.639Z,5.73
2018-05-16T09:55:11.698Z,6.27
2018-05-16T09:57:39.853Z,6.43
2018-05-16T10:00:07.846Z,5.87
2018-05-16T10:02:35.899Z,8.27
2018-05-16T10:05:03.947Z,9.27
2018-05-16T10:07:31.987Z,5.40
2018-05-16T10:10:00.035Z,6.67
2018-05-16T10:12:29.582Z,5.70
2018-05-16T10:14:58.398Z,11.60
2018-05-16T10:17:26.442Z,6.47
2018-05-16T10:19:54.487Z,7.60
2018-05-16T10:22:22.537Z,5.67
2018-05-16T10:24:51.347Z,8.33
2018-05-16T10:27:19.443Z,6.20
2018-05-16T10:29:47.527Z,6.10
2018-05-16T10:32:15.572Z,8.23
2018-05-16T10:34:43.619Z,10.30
2018-05-16T10:37:11.667Z,8.97
2018-05-16T10:39:39.781Z,9.33
2018-05-16T10:42:07.847Z,7.73
2018-05-16T10:44:35.940Z,6.30
2018-05-16T10:47:03.983Z,8.50
2018-05-16T10:49:32.031Z,5.40
2018-05-16T10:52:00.082Z,9.63
2018-05-16T10:54:28.130Z,8.97
2018-05-16T10:56:56.174Z,5.83
2018-05-16T10:59:24.224Z,7.17
2018-05-16T11:01:53.035Z,8.17
2018-05-16T11:04:21.080Z,9.23
2018-05-16T11:06:50.639Z,9.50
2018-05-16T11:09:19.442Z,6.43
2018-05-16T11:11:47.494Z,10.80
2018-05-16T11:14:15.542Z,5.70
2018-05-16T11:16:43.589Z,9.97
2018-05-16T11:19:11.635Z,5.73
2018-05-16T11:21:39.678Z,8.00
2018-05-16T11:24:07.723Z,7.33
2018-05-16T11:26:36.540Z,8.60
2018-05-16T11:29:05.347Z,6.07
2018-05-16T11:31:33.397Z,7.30
2018-05-16T11:34:01.438Z,6.27
2018-05-16T11:36:29.527Z,8.77
2018-05-16T11:38:58.286Z,7.87
2018-05-16T11:41:27.096Z,8.77
2018-05-16T11:43:55.904Z,7.07
2018-05-16T11:46:23.943Z,9.30
2018-05-16T11:48:52.194Z,6.77
2018-05-16T11:51:20.152Z,8.33
2018-05-16T11:53:48.962Z,7.90
2018-05-16T11:56:17.758Z,6.87
2018-05-16T11:58:46.585Z,6.53
2018-05-16T12:01:14.626Z,8.63
2018-05-16T12:03:42.954Z,5.90
2018-05-16T12:06:10.995Z,5.80
2018-05-16T12:08:39.047Z,5.40
2018-05-16T12:11:07.106Z,4.97
2018-05-16T12:13:35.151Z,7.50
2018-05-16T12:16:03.971Z,5.53
2018-05-16T12:18:32.790Z,6.57
2018-05-16T12:21:00.831Z,8.73
2018-05-16T12:23:28.887Z,5.87
2018-05-16T12:25:56.926Z,5.27
2018-05-16T12:28:24.981Z,5.63
2018-05-16T12:30:53.011Z,8.07
2018-05-16T12:33:21.051Z,7.43
2018-05-16T12:35:49.094Z,6.23
2018-05-16T12:38:17.142Z,7.87
2018-05-16T12:40:45.955Z,5.80
2018-05-16T12:43:17.646Z,5.47
2018-05-16T12:45:45.686Z,5.17
2018-05-16T12:48:13.735Z,6.63
2018-05-16T12:50:41.782Z,6.10
2018-05-16T12:53:09.830Z,5.90
2018-05-16T12:55:37.869Z,4.87
2018-05-16T12:58:05.919Z,7.53
2018-05-16T13:00:34.722Z,5.23
2018-05-16T13:03:03.547Z,6.47
2018-05-16T13:05:31.578Z,5.77
2018-05-16T13:07:59.643Z,8.57
2018-05-16T13:10:27.670Z,7.83
2018-05-16T13:12:56.581Z,7.80
2018-05-16T13:15:25.299Z,6.80
2018-05-16T13:17:53.380Z,4.77
2018-05-16T13:20:22.161Z,5.13
2018-05-16T13:22:50.967Z,6.03
2018-05-16T13:25:19.778Z,5.43
2018-05-16T13:27:48.599Z,5.10
2018-05-16T13:30:16.649Z,7.87
2018-05-16T13:32:44.702Z,8.10
2018-05-16T13:35:12.746Z,7.60
2018-05-16T13:37:40.786Z,4.70
2018-05-16T13:40:08.834Z,5.33
2018-05-16T13:42:36.974Z,6.63
2018-05-16T13:45:05.807Z,6.00
2018-05-16T13:47:33.848Z,5.37
2018-05-16T13:50:01.890Z,4.53
2018-05-16T13:52:29.931Z,5.25
2018-05-16T13:54:58.745Z,5.15
2018-05-16T13:57:26.790Z,6.95
2018-05-16T13:59:54.835Z,4.70
2018-05-16T14:02:22.902Z,9.45
2018-05-16T14:04:50.960Z,7.72
2018-05-16T14:07:19.002Z,5.65
2018-05-16T14:09:47.107Z,7.05
2018-05-16T14:12:15.152Z,4.97
2018-05-16T14:14:43.197Z,5.22
2018-05-16T14:17:12.009Z,12.15
2018-05-16T14:19:40.823Z,5.83
2018-05-16T14:22:08.858Z,7.47
2018-05-16T14:24:36.911Z,4.63
2018-05-16T14:27:04.958Z,5.40
2018-05-16T14:29:33.766Z,4.22
2018-05-16T14:32:02.574Z,8.48
2018-05-16T14:34:31.398Z,5.20
2018-05-16T14:36:59.462Z,4.70
2018-05-16T14:39:28.311Z,6.93
2018-05-16T14:41:56.355Z,6.68
2018-05-16T14:44:24.399Z,5.07
2018-05-16T14:46:52.475Z,4.05
2018-05-16T14:49:20.519Z,5.32
2018-05-16T14:51:48.564Z,8.90
2018-05-16T14:54:16.614Z,5.07
2018-05-16T14:56:44.655Z,4.30
2018-05-16T14:59:13.478Z,4.00
2018-05-16T15:01:41.560Z,5.37
2018-05-16T15:04:09.573Z,7.62
2018-05-16T15:06:37.618Z,4.62
2018-05-16T15:09:05.665Z,4.95
2018-05-16T15:11:33.710Z,4.55
2018-05-16T15:14:01.759Z,5.07
2018-05-16T15:16:30.575Z,6.22
2018-05-16T15:18:58.622Z,6.20
2018-05-16T15:21:27.445Z,4.80
2018-05-16T15:23:56.255Z,4.63
2018-05-16T15:26:25.063Z,7.33
2018-05-16T15:28:53.106Z,4.70
2018-05-16T15:31:22.662Z,4.33
2018-05-16T15:33:50.707Z,4.40
2018-05-16T15:36:18.754Z,5.57
2018-05-16T15:38:46.806Z,7.40
2018-05-16T15:41:15.665Z,5.17
2018-05-16T15:43:43.819Z,5.67
2018-05-16T15:46:11.870Z,8.30
2018-05-16T15:48:39.902Z,5.47
2018-05-16T15:51:07.959Z,5.70
2018-05-16T15:53:35.998Z,4.57
2018-05-16T15:56:04.054Z,6.10
2018-05-16T15:58:32.859Z,8.40
2018-05-16T16:01:00.911Z,4.50
2018-05-16T16:03:29.715Z,4.05
2018-05-16T16:05:57.764Z,6.07
2018-05-16T16:08:25.813Z,5.80
2018-05-16T16:10:53.854Z,5.43
2018-05-16T16:13:22.666Z,4.37
2018-05-16T16:15:51.479Z,4.57
2018-05-16T16:18:19.524Z,8.13
2018-05-16T16:20:47.578Z,7.70
2018-05-16T16:23:15.636Z,6.12
2018-05-16T16:25:43.683Z,5.53
2018-05-16T16:28:11.755Z,11.80
2018-05-16T16:30:39.811Z,8.23
2018-05-16T16:33:07.854Z,5.68
2018-05-16T16:35:36.695Z,7.32
2018-05-16T16:38:04.739Z,6.25
2018-05-16T16:40:33.574Z,8.50
2018-05-16T16:43:01.614Z,7.07
2018-05-16T16:45:30.430Z,8.55
2018-05-16T16:47:58.471Z,7.03
2018-05-16T16:50:26.514Z,5.82
2018-05-16T16:52:54.559Z,8.60
2018-05-16T16:55:22.598Z,6.82
2018-05-16T16:57:50.643Z,5.97
2018-05-16T17:00:19.451Z,6.43
2018-05-16T17:02:48.263Z,6.18
2018-05-16T17:05:16.310Z,6.25
2018-05-16T17:07:44.373Z,8.95
2018-05-16T17:10:12.432Z,7.00
2018-05-16T17:12:40.478Z,4.85
2018-05-16T17:15:09.307Z,4.85
2018-05-16T17:17:37.400Z,9.23
2018-05-16T17:20:05.468Z,6.20
2018-05-16T17:22:34.294Z,4.00
2018-05-16T17:25:02.350Z,5.80
2018-05-16T17:27:31.176Z,5.33
2018-05-16T17:29:59.695Z,5.17
2018-05-16T17:32:27.849Z,6.70
2018-05-16T17:34:56.651Z,5.43
2018-05-16T17:37:25.466Z,8.20
2018-05-16T17:39:53.502Z,5.80
2018-05-16T17:42:21.555Z,9.13
2018-05-16T17:44:49.598Z,6.07
2018-05-16T17:47:18.425Z,6.10
2018-05-16T17:49:46.470Z,5.73
2018-05-16T17:52:14.544Z,5.97
2018-05-16T17:54:42.583Z,6.33
2018-05-16T17:57:10.630Z,6.30
2018-05-16T17:59:38.772Z,5.30
2018-05-16T18:02:06.807Z,7.30
2018-05-16T18:04:35.639Z,6.23
2018-05-16T18:07:03.698Z,6.77
2018-05-16T18:09:32.503Z,5.67
2018-05-16T18:12:01.322Z,8.67
2018-05-16T18:17:40.395Z,6.20
2018-05-16T18:20:09.211Z,7.10
2018-05-16T18:22:37.423Z,5.60
2018-05-16T18:25:06.195Z,8.30
2018-05-16T18:27:34.250Z,7.23
2018-05-16T18:30:02.291Z,9.63
2018-05-16T18:32:30.334Z,9.43
2018-05-16T18:34:59.138Z,7.60
2018-05-16T18:37:27.969Z,15.47
2018-05-16T18:39:56.002Z,6.10
2018-05-16T18:42:24.170Z,9.50
2018-05-16T18:44:52.102Z,9.20
2018-05-16T18:47:20.162Z,8.47
2018-05-16T18:49:48.970Z,6.30
2018-05-16T18:52:17.787Z,7.23
2018-05-16T18:54:45.890Z,10.60
2018-05-16T18:57:14.647Z,8.70
2018-05-16T18:59:43.398Z,7.30
2018-05-16T19:02:11.433Z,8.30
2018-05-16T19:04:39.567Z,10.80
2018-05-16T19:07:07.638Z,11.03
2018-05-16T19:09:35.682Z,14.23
2018-05-16T19:12:03.729Z,13.30
2018-05-16T19:14:31.818Z,8.47
2018-05-16T19:16:59.822Z,11.03
2018-05-16T19:19:27.870Z,7.93
2018-05-16T19:21:55.931Z,8.17
2018-05-16T19:24:24.726Z,7.23
2018-05-16T19:26:53.645Z,7.40
2018-05-16T19:29:21.702Z,9.00
2018-05-16T19:31:49.754Z,8.73
2018-05-16T19:34:17.838Z,8.27
2018-05-16T19:36:45.884Z,10.23
2018-05-16T19:39:13.950Z,13.60
2018-05-16T19:41:42.819Z,8.53
2018-05-16T19:44:10.854Z,9.87
2018-05-16T19:46:38.886Z,14.07
2018-05-16T19:49:06.942Z,7.03
2018-05-16T19:51:34.986Z,11.47
2018-05-16T19:54:03.803Z,8.23
2018-05-16T19:56:31.839Z,8.13
2018-05-16T19:58:59.943Z,7.70
2018-05-16T20:01:27.982Z,10.70
2018-05-16T20:03:56.022Z,9.70
2018-05-16T20:06:24.834Z,9.33
2018-05-16T20:08:53.658Z,12.33
2018-05-16T20:11:21.689Z,8.60
2018-05-16T20:13:49.744Z,11.57
2018-05-16T20:16:17.781Z,6.90
2018-05-16T20:18:46.734Z,9.33
2018-05-16T20:21:14.781Z,7.73
2018-05-16T20:23:43.672Z,9.00
2018-05-16T20:26:11.707Z,11.70
2018-05-16T20:28:39.794Z,7.10
2018-05-16T20:31:07.830Z,9.07
2018-05-16T20:33:36.650Z,11.90
2018-05-16T20:36:04.743Z,10.13
2018-05-16T20:38:32.790Z,9.20
2018-05-16T20:41:00.835Z,8.67
2018-05-16T20:43:28.883Z,7.47
2018-05-16T20:45:57.698Z,11.07
2018-05-16T20:48:25.749Z,11.23
2018-05-16T20:50:53.799Z,7.70
2018-05-16T20:53:21.839Z,13.03
2018-05-16T20:55:49.885Z,9.17
2018-05-16T20:58:17.926Z,9.07
2018-05-16T21:00:45.998Z,8.33
2018-05-16T21:03:14.041Z,13.17
2018-05-16T21:05:42.095Z,10.20
2018-05-16T21:08:10.143Z,11.47
2018-05-16T21:10:38.950Z,9.03
2018-05-16T21:13:07.754Z,13.60
2018-05-16T21:15:35.837Z,12.83
2018-05-16T21:18:03.882Z,10.70
2018-05-16T21:20:31.939Z,9.13
2018-05-16T21:22:59.979Z,11.87
2018-05-16T21:25:28.817Z,15.27
2018-05-16T21:27:56.854Z,12.20
2018-05-16T21:30:25.680Z,14.60
2018-05-16T21:32:53.791Z,14.80
2018-05-16T21:35:21.842Z,13.93
2018-05-16T21:37:50.754Z,15.43
2018-05-16T21:40:18.808Z,16.37
2018-05-16T21:42:46.855Z,20.93
2018-05-16T21:45:14.910Z,13.20
2018-05-16T21:47:42.955Z,16.87
2018-05-16T21:50:11.007Z,11.63
2018-05-16T21:52:39.051Z,18.70
2018-05-16T21:55:07.868Z,16.17
2018-05-16T21:57:35.910Z,13.10
2018-05-16T22:00:03.967Z,12.67
2018-05-16T22:02:32.034Z,15.77
2018-05-16T22:05:00.092Z,12.40
2018-05-16T22:07:28.906Z,12.43
2018-05-16T22:09:56.959Z,15.70
2018-05-16T22:12:25.006Z,13.33
2018-05-16T22:14:53.066Z,17.30
2018-05-16T22:17:21.106Z,12.83
2018-05-16T22:19:49.158Z,15.47
2018-05-16T22:22:17.213Z,15.30
2018-05-16T22:24:45.257Z,17.20
2018-05-16T22:27:13.310Z,15.73
2018-05-16T22:29:41.351Z,16.97
2018-05-16T22:32:15.065Z,15.77
2018-05-16T22:34:49.394Z,13.33
2018-05-16T22:37:23.723Z,17.50
2018-05-16T22:39:58.063Z,14.20
2018-05-16T22:42:29.267Z,14.83
2018-05-16T22:45:03.023Z,11.97
2018-05-16T22:47:31.859Z,18.97
2018-05-16T22:49:59.898Z,13.57
2018-05-16T22:52:27.954Z,14.67
2018-05-16T22:54:55.999Z,15.13
2018-05-16T22:57:24.050Z,22.67
2018-05-16T22:59:52.096Z,15.23
2018-05-16T23:02:20.151Z,14.07
2018-05-16T23:04:48.251Z,16.50
2018-05-16T23:07:16.304Z,15.50
2018-05-16T23:09:45.111Z,16.27
2018-05-16T23:12:13.926Z,14.43
2018-05-16T23:14:41.975Z,13.13
2018-05-16T23:17:10.031Z,16.33
2018-05-16T23:19:38.071Z,15.80
2018-05-16T23:22:06.892Z,15.27
2018-05-16T23:24:34.957Z,18.77
2018-05-16T23:27:03.875Z,20.07
2018-05-16T23:29:31.922Z,17.90
2018-05-16T23:31:59.969Z,17.00
2018-05-16T23:34:28.014Z,18.07
2018-05-16T23:36:56.835Z,15.80
2018-05-16T23:39:24.887Z,16.90
2018-05-16T23:41:52.938Z,18.03
2018-05-16T23:44:21.006Z,15.67
2018-05-16T23:46:49.083Z,18.60
2018-05-16T23:49:17.132Z,15.37
2018-05-16T23:51:45.181Z,16.80
2018-05-16T23:54:13.331Z,15.10
2018-05-16T23:56:41.390Z,17.07
2018-05-16T23:59:10.206Z,17.20
